Terminal Aerodrome Forecast
Issued by NWS New Orleans/Baton Rouge, LA

Home | Current Version | Previous Version | Text Only | Print | Product List | Glossary On
Versions: 1 2 3 4 5 6 7 8 9 10 11 12 13 14 15 16 17 18 19 20 21 22 23 24 25 26 27 28 29 30 31 32 33 34 35
279
FTUS44 KLIX 300540
TAFNEW
TAF
KNEW 300540Z 3006/0106 13009KT P6SM SCT015 BKN035
     FM300700 14010KT P6SM BKN015
     FM301600 16015KT P6SM OVC035
     FM301900 16012KT P6SM VCTS BKN025CB OVC035
     FM302200 16010KT P6SM SHRA BKN025
     FM010100 16009KT P6SM OVC060=

USA.gov is the U.S. government's official web portal to all federal, state and local government web resources and services.